sensor_id;sensor_type;location;lat;lon;timestamp;P1;durP1;ratioP1;P2;durP2;ratioP2
14817;SDS011;7500;57.698;11.986;2023-03-31T00:00:50;0.00;;;0.00;;
14817;SDS011;7500;57.698;11.986;2023-03-31T00:03:18;0.00;;;0.00;;
14817;SDS011;7500;57.698;11.986;2023-03-31T00:05:48;0.07;;;0.07;;
14817;SDS011;7500;57.698;11.986;2023-03-31T00:08:17;0.00;;;0.00;;
14817;SDS011;7500;57.698;11.986;2023-03-31T00:10:45;0.07;;;0.07;;
14817;SDS011;7500;57.698;11.986;2023-03-31T00:13:12;0.00;;;0.00;;
14817;SDS011;7500;57.698;11.986;2023-03-31T00:15:39;0.00;;;0.00;;
14817;SDS011;7500;57.698;11.986;2023-03-31T00:18:06;0.53;;;0.10;;
14817;SDS011;7500;57.698;11.986;2023-03-31T00:20:34;0.10;;;0.10;;
14817;SDS011;7500;57.698;11.986;2023-03-31T00:23:02;0.10;;;0.10;;
14817;SDS011;7500;57.698;11.986;2023-03-31T00:25:34;0.00;;;0.00;;
14817;SDS011;7500;57.698;11.986;2023-03-31T00:28:01;0.23;;;0.10;;
14817;SDS011;7500;57.698;11.986;2023-03-31T00:30:28;0.03;;;0.03;;
14817;SDS011;7500;57.698;11.986;2023-03-31T00:32:54;0.10;;;0.10;;
14817;SDS011;7500;57.698;11.986;2023-03-31T00:35:21;0.30;;;0.10;;
14817;SDS011;7500;57.698;11.986;2023-03-31T00:37:49;0.00;;;0.00;;
14817;SDS011;7500;57.698;11.986;2023-03-31T00:40:18;0.00;;;0.00;;
14817;SDS011;7500;57.698;11.986;2023-03-31T00:42:44;0.30;;;0.20;;
14817;SDS011;7500;57.698;11.986;2023-03-31T00:48:04;0.00;;;0.00;;
14817;SDS011;7500;57.698;11.986;2023-03-31T00:50:34;0.00;;;0.00;;
14817;SDS011;7500;57.698;11.986;2023-03-31T00:53:04;0.10;;;0.10;;
14817;SDS011;7500;57.698;11.986;2023-03-31T00:55:33;0.00;;;0.00;;
14817;SDS011;7500;57.698;11.986;2023-03-31T00:58:00;0.03;;;0.00;;
14817;SDS011;7500;57.698;11.986;2023-03-31T01:00:28;0.10;;;0.10;;
14817;SDS011;7500;57.698;11.986;2023-03-31T01:02:55;0.17;;;0.00;;
14817;SDS011;7500;57.698;11.986;2023-03-31T01:05:24;0.07;;;0.07;;
14817;SDS011;7500;57.698;11.986;2023-03-31T01:07:52;0.07;;;0.00;;
14817;SDS011;7500;57.698;11.986;2023-03-31T01:10:21;0.00;;;0.00;;
14817;SDS011;7500;57.698;11.986;2023-03-31T01:12:48;0.00;;;0.00;;
14817;SDS011;7500;57.698;11.986;2023-03-31T01:15:15;1.50;;;0.10;;
14817;SDS011;7500;57.698;11.986;2023-03-31T01:17:42;0.10;;;0.10;;
14817;SDS011;7500;57.698;11.986;2023-03-31T01:20:11;0.30;;;0.10;;
14817;SDS011;7500;57.698;11.986;2023-03-31T01:28:22;0.00;;;0.00;;
14817;SDS011;7500;57.698;11.986;2023-03-31T01:31:08;0.20;;;0.10;;
14817;SDS011;7500;57.698;11.986;2023-03-31T01:33:54;0.10;;;0.00;;
14817;SDS011;7500;57.698;11.986;2023-03-31T01:36:40;0.27;;;0.13;;
14817;SDS011;7500;57.698;11.986;2023-03-31T01:39:24;0.10;;;0.00;;
14817;SDS011;7500;57.698;11.986;2023-03-31T01:41:58;0.53;;;0.10;;
14817;SDS011;7500;57.698;11.986;2023-03-31T01:44:31;0.00;;;0.00;;
14817;SDS011;7500;57.698;11.986;2023-03-31T01:46:59;0.00;;;0.00;;
14817;SDS011;7500;57.698;11.986;2023-03-31T01:49:28;0.10;;;0.10;;
14817;SDS011;7500;57.698;11.986;2023-03-31T01:52:02;0.30;;;0.10;;
14817;SDS011;7500;57.698;11.986;2023-03-31T01:54:31;0.20;;;0.20;;
14817;SDS011;7500;57.698;11.986;2023-03-31T01:57:06;0.10;;;0.10;;
14817;SDS011;7500;57.698;11.986;2023-03-31T01:59:38;0.10;;;0.00;;
14817;SDS011;7500;57.698;11.986;2023-03-31T02:02:06;0.23;;;0.10;;
14817;SDS011;7500;57.698;11.986;2023-03-31T02:04:37;1.60;;;0.00;;
14817;SDS011;7500;57.698;11.986;2023-03-31T02:07:06;0.00;;;0.00;;
14817;SDS011;7500;57.698;11.986;2023-03-31T02:09:35;1.07;;;0.20;;
14817;SDS011;7500;57.698;11.986;2023-03-31T02:12:04;0.00;;;0.00;;
14817;SDS011;7500;57.698;11.986;2023-03-31T02:14:34;0.60;;;0.10;;
14817;SDS011;7500;57.698;11.986;2023-03-31T02:17:03;0.10;;;0.10;;
14817;SDS011;7500;57.698;11.986;2023-03-31T02:19:33;0.10;;;0.10;;
14817;SDS011;7500;57.698;11.986;2023-03-31T02:22:00;0.00;;;0.00;;
14817;SDS011;7500;57.698;11.986;2023-03-31T02:24:28;0.20;;;0.10;;
14817;SDS011;7500;57.698;11.986;2023-03-31T02:26:58;0.10;;;0.10;;
14817;SDS011;7500;57.698;11.986;2023-03-31T02:29:26;0.00;;;0.00;;
14817;SDS011;7500;57.698;11.986;2023-03-31T02:31:58;0.10;;;0.00;;
14817;SDS011;7500;57.698;11.986;2023-03-31T02:34:26;0.00;;;0.00;;
14817;SDS011;7500;57.698;11.986;2023-03-31T02:36:53;0.10;;;0.10;;
14817;SDS011;7500;57.698;11.986;2023-03-31T02:39:20;0.10;;;0.10;;
14817;SDS011;7500;57.698;11.986;2023-03-31T02:41:49;0.00;;;0.00;;
14817;SDS011;7500;57.698;11.986;2023-03-31T02:44:15;0.37;;;0.10;;
14817;SDS011;7500;57.698;11.986;2023-03-31T02:46:42;0.57;;;0.00;;
14817;SDS011;7500;57.698;11.986;2023-03-31T02:49:11;0.30;;;0.00;;
14817;SDS011;7500;57.698;11.986;2023-03-31T02:57:24;0.00;;;0.00;;
14817;SDS011;7500;57.698;11.986;2023-03-31T02:59:59;0.20;;;0.10;;
14817;SDS011;7500;57.698;11.986;2023-03-31T03:02:34;0.40;;;0.10;;
14817;SDS011;7500;57.698;11.986;2023-03-31T03:05:08;0.00;;;0.00;;
14817;SDS011;7500;57.698;11.986;2023-03-31T03:07:40;0.20;;;0.00;;
14817;SDS011;7500;57.698;11.986;2023-03-31T03:10:11;0.00;;;0.00;;
14817;SDS011;7500;57.698;11.986;2023-03-31T03:12:41;0.10;;;0.10;;
14817;SDS011;7500;57.698;11.986;2023-03-31T03:15:15;0.00;;;0.00;;
14817;SDS011;7500;57.698;11.986;2023-03-31T03:17:43;0.10;;;0.10;;
14817;SDS011;7500;57.698;11.986;2023-03-31T03:20:12;0.20;;;0.10;;
14817;SDS011;7500;57.698;11.986;2023-03-31T03:22:40;0.07;;;0.07;;
14817;SDS011;7500;57.698;11.986;2023-03-31T03:25:08;0.13;;;0.07;;
14817;SDS011;7500;57.698;11.986;2023-03-31T03:27:35;0.10;;;0.00;;
14817;SDS011;7500;57.698;11.986;2023-03-31T03:30:03;0.17;;;0.10;;
14817;SDS011;7500;57.698;11.986;2023-03-31T03:32:30;0.10;;;0.10;;
14817;SDS011;7500;57.698;11.986;2023-03-31T03:34:57;0.10;;;0.10;;
14817;SDS011;7500;57.698;11.986;2023-03-31T03:37:26;0.10;;;0.10;;
14817;SDS011;7500;57.698;11.986;2023-03-31T03:39:53;0.10;;;0.10;;
14817;SDS011;7500;57.698;11.986;2023-03-31T03:42:19;0.00;;;0.00;;
14817;SDS011;7500;57.698;11.986;2023-03-31T03:44:46;0.00;;;0.00;;
14817;SDS011;7500;57.698;11.986;2023-03-31T03:47:13;0.10;;;0.00;;
14817;SDS011;7500;57.698;11.986;2023-03-31T03:49:39;0.40;;;0.10;;
14817;SDS011;7500;57.698;11.986;2023-03-31T03:52:06;0.00;;;0.00;;
14817;SDS011;7500;57.698;11.986;2023-03-31T03:54:34;1.27;;;0.20;;
14817;SDS011;7500;57.698;11.986;2023-03-31T03:57:01;0.20;;;0.20;;
14817;SDS011;7500;57.698;11.986;2023-03-31T03:59:27;0.10;;;0.10;;
14817;SDS011;7500;57.698;11.986;2023-03-31T04:01:54;0.10;;;0.10;;
14817;SDS011;7500;57.698;11.986;2023-03-31T04:04:21;0.40;;;0.00;;
14817;SDS011;7500;57.698;11.986;2023-03-31T04:06:47;0.10;;;0.10;;
14817;SDS011;7500;57.698;11.986;2023-03-31T04:09:14;0.10;;;0.10;;
14817;SDS011;7500;57.698;11.986;2023-03-31T04:11:42;1.13;;;0.10;;
14817;SDS011;7500;57.698;11.986;2023-03-31T04:14:09;0.20;;;0.10;;
14817;SDS011;7500;57.698;11.986;2023-03-31T04:16:35;0.00;;;0.00;;
14817;SDS011;7500;57.698;11.986;2023-03-31T04:19:02;0.30;;;0.10;;
14817;SDS011;7500;57.698;11.986;2023-03-31T04:21:29;0.97;;;0.10;;
14817;SDS011;7500;57.698;11.986;2023-03-31T04:23:59;0.30;;;0.20;;
14817;SDS011;7500;57.698;11.986;2023-03-31T04:26:29;1.13;;;0.10;;
14817;SDS011;7500;57.698;11.986;2023-03-31T04:29:04;0.03;;;0.00;;
14817;SDS011;7500;57.698;11.986;2023-03-31T04:31:31;2.00;;;0.20;;
14817;SDS011;7500;57.698;11.986;2023-03-31T04:33:58;1.00;;;0.30;;
14817;SDS011;7500;57.698;11.986;2023-03-31T04:36:26;0.63;;;0.10;;
14817;SDS011;7500;57.698;11.986;2023-03-31T04:38:53;0.00;;;0.00;;
14817;SDS011;7500;57.698;11.986;2023-03-31T04:41:20;0.00;;;0.00;;
14817;SDS011;7500;57.698;11.986;2023-03-31T04:43:47;0.30;;;0.10;;
14817;SDS011;7500;57.698;11.986;2023-03-31T04:46:15;0.33;;;0.10;;
14817;SDS011;7500;57.698;11.986;2023-03-31T04:48:41;0.47;;;0.10;;
14817;SDS011;7500;57.698;11.986;2023-03-31T04:51:08;0.67;;;0.20;;
14817;SDS011;7500;57.698;11.986;2023-03-31T04:53:35;0.33;;;0.20;;
14817;SDS011;7500;57.698;11.986;2023-03-31T04:56:02;0.37;;;0.20;;
14817;SDS011;7500;57.698;11.986;2023-03-31T04:58:28;0.37;;;0.20;;
14817;SDS011;7500;57.698;11.986;2023-03-31T05:00:55;1.20;;;0.20;;
14817;SDS011;7500;57.698;11.986;2023-03-31T05:03:23;0.90;;;0.30;;
14817;SDS011;7500;57.698;11.986;2023-03-31T05:05:50;0.20;;;0.20;;
14817;SDS011;7500;57.698;11.986;2023-03-31T05:08:16;0.73;;;0.40;;
14817;SDS011;7500;57.698;11.986;2023-03-31T05:10:43;0.10;;;0.10;;
14817;SDS011;7500;57.698;11.986;2023-03-31T05:13:10;0.10;;;0.10;;
14817;SDS011;7500;57.698;11.986;2023-03-31T05:15:37;0.30;;;0.20;;
14817;SDS011;7500;57.698;11.986;2023-03-31T05:18:03;0.07;;;0.07;;
14817;SDS011;7500;57.698;11.986;2023-03-31T05:20:32;0.90;;;0.40;;
14817;SDS011;7500;57.698;11.986;2023-03-31T05:22:59;2.70;;;1.47;;
14817;SDS011;7500;57.698;11.986;2023-03-31T05:25:26;0.10;;;0.10;;
14817;SDS011;7500;57.698;11.986;2023-03-31T05:27:57;0.30;;;0.10;;
14817;SDS011;7500;57.698;11.986;2023-03-31T05:30:25;0.17;;;0.10;;
14817;SDS011;7500;57.698;11.986;2023-03-31T05:32:52;0.87;;;0.30;;
14817;SDS011;7500;57.698;11.986;2023-03-31T05:35:18;0.27;;;0.20;;
14817;SDS011;7500;57.698;11.986;2023-03-31T05:37:46;0.17;;;0.10;;
14817;SDS011;7500;57.698;11.986;2023-03-31T05:40:13;0.07;;;0.07;;
14817;SDS011;7500;57.698;11.986;2023-03-31T05:42:39;0.10;;;0.10;;
14817;SDS011;7500;57.698;11.986;2023-03-31T05:45:07;0.20;;;0.10;;
14817;SDS011;7500;57.698;11.986;2023-03-31T05:47:33;0.30;;;0.30;;
14817;SDS011;7500;57.698;11.986;2023-03-31T05:50:00;0.20;;;0.10;;
14817;SDS011;7500;57.698;11.986;2023-03-31T05:52:31;1.00;;;0.20;;
14817;SDS011;7500;57.698;11.986;2023-03-31T05:54:59;0.20;;;0.10;;
14817;SDS011;7500;57.698;11.986;2023-03-31T05:57:26;0.30;;;0.20;;
14817;SDS011;7500;57.698;11.986;2023-03-31T05:59:52;0.33;;;0.10;;
14817;SDS011;7500;57.698;11.986;2023-03-31T06:02:19;0.20;;;0.20;;
14817;SDS011;7500;57.698;11.986;2023-03-31T06:04:46;0.30;;;0.10;;
14817;SDS011;7500;57.698;11.986;2023-03-31T06:07:12;0.30;;;0.30;;
14817;SDS011;7500;57.698;11.986;2023-03-31T06:09:42;0.20;;;0.20;;
14817;SDS011;7500;57.698;11.986;2023-03-31T06:12:10;0.10;;;0.03;;
14817;SDS011;7500;57.698;11.986;2023-03-31T06:14:36;0.43;;;0.20;;
14817;SDS011;7500;57.698;11.986;2023-03-31T06:17:03;0.70;;;0.20;;
14817;SDS011;7500;57.698;11.986;2023-03-31T06:19:29;1.23;;;0.33;;
14817;SDS011;7500;57.698;11.986;2023-03-31T06:21:57;0.20;;;0.10;;
14817;SDS011;7500;57.698;11.986;2023-03-31T06:24:23;0.40;;;0.20;;
14817;SDS011;7500;57.698;11.986;2023-03-31T06:26:50;0.77;;;0.23;;
14817;SDS011;7500;57.698;11.986;2023-03-31T06:29:18;0.30;;;0.20;;
14817;SDS011;7500;57.698;11.986;2023-03-31T06:31:44;0.10;;;0.10;;
14817;SDS011;7500;57.698;11.986;2023-03-31T06:34:11;2.13;;;0.30;;
14817;SDS011;7500;57.698;11.986;2023-03-31T06:36:38;0.20;;;0.20;;
14817;SDS011;7500;57.698;11.986;2023-03-31T06:39:05;0.20;;;0.20;;
14817;SDS011;7500;57.698;11.986;2023-03-31T06:41:32;0.10;;;0.10;;
14817;SDS011;7500;57.698;11.986;2023-03-31T06:43:58;1.13;;;0.23;;
14817;SDS011;7500;57.698;11.986;2023-03-31T06:46:26;0.77;;;0.20;;
14817;SDS011;7500;57.698;11.986;2023-03-31T06:48:53;0.07;;;0.07;;
14817;SDS011;7500;57.698;11.986;2023-03-31T06:51:20;0.30;;;0.10;;
14817;SDS011;7500;57.698;11.986;2023-03-31T06:53:46;0.40;;;0.10;;
14817;SDS011;7500;57.698;11.986;2023-03-31T06:56:13;2.37;;;0.20;;
14817;SDS011;7500;57.698;11.986;2023-03-31T06:58:39;0.27;;;0.07;;
14817;SDS011;7500;57.698;11.986;2023-03-31T07:01:06;0.17;;;0.10;;
14817;SDS011;7500;57.698;11.986;2023-03-31T07:03:36;0.33;;;0.20;;
14817;SDS011;7500;57.698;11.986;2023-03-31T07:06:03;0.50;;;0.20;;
14817;SDS011;7500;57.698;11.986;2023-03-31T07:08:30;0.00;;;0.00;;
14817;SDS011;7500;57.698;11.986;2023-03-31T07:10:57;0.60;;;0.60;;
14817;SDS011;7500;57.698;11.986;2023-03-31T07:13:25;0.40;;;0.23;;
14817;SDS011;7500;57.698;11.986;2023-03-31T07:15:52;0.47;;;0.10;;
14817;SDS011;7500;57.698;11.986;2023-03-31T07:18:19;0.40;;;0.10;;
14817;SDS011;7500;57.698;11.986;2023-03-31T07:20:48;0.17;;;0.17;;
14817;SDS011;7500;57.698;11.986;2023-03-31T07:23:15;0.20;;;0.10;;
14817;SDS011;7500;57.698;11.986;2023-03-31T07:25:41;0.33;;;0.10;;
14817;SDS011;7500;57.698;11.986;2023-03-31T07:28:08;0.37;;;0.20;;
14817;SDS011;7500;57.698;11.986;2023-03-31T07:30:35;0.30;;;0.20;;
14817;SDS011;7500;57.698;11.986;2023-03-31T07:33:01;0.43;;;0.20;;
14817;SDS011;7500;57.698;11.986;2023-03-31T07:35:28;0.40;;;0.33;;
14817;SDS011;7500;57.698;11.986;2023-03-31T07:37:56;0.17;;;0.17;;
14817;SDS011;7500;57.698;11.986;2023-03-31T07:40:23;0.77;;;0.10;;
14817;SDS011;7500;57.698;11.986;2023-03-31T07:42:50;0.40;;;0.10;;
14817;SDS011;7500;57.698;11.986;2023-03-31T07:45:17;0.10;;;0.10;;
14817;SDS011;7500;57.698;11.986;2023-03-31T07:47:44;0.10;;;0.10;;
14817;SDS011;7500;57.698;11.986;2023-03-31T07:50:11;0.10;;;0.10;;
14817;SDS011;7500;57.698;11.986;2023-03-31T07:52:38;1.43;;;0.10;;
14817;SDS011;7500;57.698;11.986;2023-03-31T07:55:07;0.20;;;0.20;;
14817;SDS011;7500;57.698;11.986;2023-03-31T07:57:34;0.40;;;0.20;;
14817;SDS011;7500;57.698;11.986;2023-03-31T08:00:01;0.20;;;0.10;;
14817;SDS011;7500;57.698;11.986;2023-03-31T08:02:31;0.20;;;0.20;;
14817;SDS011;7500;57.698;11.986;2023-03-31T08:04:58;0.20;;;0.20;;
14817;SDS011;7500;57.698;11.986;2023-03-31T08:07:25;0.63;;;0.27;;
14817;SDS011;7500;57.698;11.986;2023-03-31T08:09:55;0.30;;;0.20;;
14817;SDS011;7500;57.698;11.986;2023-03-31T08:12:23;0.03;;;0.03;;
14817;SDS011;7500;57.698;11.986;2023-03-31T08:14:49;0.97;;;0.30;;
14817;SDS011;7500;57.698;11.986;2023-03-31T08:17:16;0.40;;;0.20;;
14817;SDS011;7500;57.698;11.986;2023-03-31T08:19:43;0.30;;;0.20;;
14817;SDS011;7500;57.698;11.986;2023-03-31T08:22:09;1.03;;;0.27;;
14817;SDS011;7500;57.698;11.986;2023-03-31T08:24:36;2.50;;;0.30;;
14817;SDS011;7500;57.698;11.986;2023-03-31T08:27:02;0.20;;;0.20;;
14817;SDS011;7500;57.698;11.986;2023-03-31T08:29:30;0.63;;;0.20;;
14817;SDS011;7500;57.698;11.986;2023-03-31T08:31:57;0.73;;;0.27;;
14817;SDS011;7500;57.698;11.986;2023-03-31T08:34:24;0.27;;;0.27;;
14817;SDS011;7500;57.698;11.986;2023-03-31T08:36:51;0.20;;;0.13;;
14817;SDS011;7500;57.698;11.986;2023-03-31T08:39:17;1.23;;;0.40;;
14817;SDS011;7500;57.698;11.986;2023-03-31T08:41:46;0.23;;;0.20;;
14817;SDS011;7500;57.698;11.986;2023-03-31T08:44:16;1.23;;;0.20;;
14817;SDS011;7500;57.698;11.986;2023-03-31T08:46:48;0.67;;;0.30;;
14817;SDS011;7500;57.698;11.986;2023-03-31T08:49:17;0.50;;;0.50;;
14817;SDS011;7500;57.698;11.986;2023-03-31T08:51:45;0.60;;;0.40;;
14817;SDS011;7500;57.698;11.986;2023-03-31T08:54:15;0.67;;;0.40;;
14817;SDS011;7500;57.698;11.986;2023-03-31T08:56:43;0.27;;;0.20;;
14817;SDS011;7500;57.698;11.986;2023-03-31T08:59:16;0.93;;;0.37;;
14817;SDS011;7500;57.698;11.986;2023-03-31T09:01:44;0.23;;;0.23;;
14817;SDS011;7500;57.698;11.986;2023-03-31T09:04:18;0.40;;;0.40;;
14817;SDS011;7500;57.698;11.986;2023-03-31T09:06:47;0.50;;;0.47;;
14817;SDS011;7500;57.698;11.986;2023-03-31T09:09:17;0.53;;;0.30;;
14817;SDS011;7500;57.698;11.986;2023-03-31T09:11:46;0.53;;;0.40;;
14817;SDS011;7500;57.698;11.986;2023-03-31T09:14:17;0.80;;;0.40;;
14817;SDS011;7500;57.698;11.986;2023-03-31T09:16:47;0.60;;;0.60;;
14817;SDS011;7500;57.698;11.986;2023-03-31T09:19:18;0.27;;;0.27;;
14817;SDS011;7500;57.698;11.986;2023-03-31T09:21:47;0.70;;;0.40;;
14817;SDS011;7500;57.698;11.986;2023-03-31T09:24:16;0.40;;;0.40;;
14817;SDS011;7500;57.698;11.986;2023-03-31T09:26:45;0.60;;;0.50;;
14817;SDS011;7500;57.698;11.986;2023-03-31T09:29:14;1.97;;;0.70;;
14817;SDS011;7500;57.698;11.986;2023-03-31T09:31:43;0.40;;;0.40;;
14817;SDS011;7500;57.698;11.986;2023-03-31T09:34:12;1.63;;;0.60;;
14817;SDS011;7500;57.698;11.986;2023-03-31T09:36:40;0.70;;;0.70;;
14817;SDS011;7500;57.698;11.986;2023-03-31T09:39:08;0.40;;;0.40;;
14817;SDS011;7500;57.698;11.986;2023-03-31T09:41:35;1.90;;;0.73;;
14817;SDS011;7500;57.698;11.986;2023-03-31T09:44:02;0.50;;;0.50;;
14817;SDS011;7500;57.698;11.986;2023-03-31T09:46:29;0.73;;;0.73;;
14817;SDS011;7500;57.698;11.986;2023-03-31T09:48:58;0.80;;;0.70;;
14817;SDS011;7500;57.698;11.986;2023-03-31T09:51:28;0.87;;;0.63;;
14817;SDS011;7500;57.698;11.986;2023-03-31T09:53:59;1.30;;;0.70;;
14817;SDS011;7500;57.698;11.986;2023-03-31T09:56:34;0.53;;;0.53;;
14817;SDS011;7500;57.698;11.986;2023-03-31T09:59:12;0.70;;;0.70;;
14817;SDS011;7500;57.698;11.986;2023-03-31T10:01:39;0.40;;;0.40;;
14817;SDS011;7500;57.698;11.986;2023-03-31T10:04:06;0.93;;;0.67;;
14817;SDS011;7500;57.698;11.986;2023-03-31T10:06:33;0.70;;;0.70;;
14817;SDS011;7500;57.698;11.986;2023-03-31T10:09:08;1.17;;;1.00;;
14817;SDS011;7500;57.698;11.986;2023-03-31T10:11:35;0.60;;;0.60;;
14817;SDS011;7500;57.698;11.986;2023-03-31T10:14:03;0.80;;;0.73;;
14817;SDS011;7500;57.698;11.986;2023-03-31T10:16:31;1.00;;;1.00;;
14817;SDS011;7500;57.698;11.986;2023-03-31T10:19:10;1.67;;;0.70;;
14817;SDS011;7500;57.698;11.986;2023-03-31T10:21:36;1.00;;;0.93;;
14817;SDS011;7500;57.698;11.986;2023-03-31T10:24:08;0.53;;;0.53;;
14817;SDS011;7500;57.698;11.986;2023-03-31T10:26:35;1.90;;;0.70;;
14817;SDS011;7500;57.698;11.986;2023-03-31T10:29:05;1.80;;;0.90;;
14817;SDS011;7500;57.698;11.986;2023-03-31T10:31:35;0.60;;;0.60;;
14817;SDS011;7500;57.698;11.986;2023-03-31T10:34:04;1.73;;;0.80;;
14817;SDS011;7500;57.698;11.986;2023-03-31T10:36:31;1.80;;;0.90;;
14817;SDS011;7500;57.698;11.986;2023-03-31T10:38:59;0.80;;;0.80;;
14817;SDS011;7500;57.698;11.986;2023-03-31T10:41:32;0.50;;;0.50;;
14817;SDS011;7500;57.698;11.986;2023-03-31T10:43:59;0.70;;;0.70;;
14817;SDS011;7500;57.698;11.986;2023-03-31T10:46:38;0.87;;;0.87;;
14817;SDS011;7500;57.698;11.986;2023-03-31T10:49:13;1.00;;;0.90;;
14817;SDS011;7500;57.698;11.986;2023-03-31T10:51:46;2.20;;;0.80;;
14817;SDS011;7500;57.698;11.986;2023-03-31T10:54:13;0.60;;;0.60;;
14817;SDS011;7500;57.698;11.986;2023-03-31T10:56:42;0.87;;;0.87;;
14817;SDS011;7500;57.698;11.986;2023-03-31T10:59:16;0.73;;;0.73;;
14817;SDS011;7500;57.698;11.986;2023-03-31T11:01:48;0.80;;;0.80;;
14817;SDS011;7500;57.698;11.986;2023-03-31T11:04:27;0.90;;;0.60;;
14817;SDS011;7500;57.698;11.986;2023-03-31T11:07:01;0.60;;;0.60;;
14817;SDS011;7500;57.698;11.986;2023-03-31T11:09:35;1.60;;;1.10;;
14817;SDS011;7500;57.698;11.986;2023-03-31T11:12:10;0.70;;;0.70;;
14817;SDS011;7500;57.698;11.986;2023-03-31T11:14:43;1.03;;;0.83;;
14817;SDS011;7500;57.698;11.986;2023-03-31T11:17:15;0.80;;;0.77;;
14817;SDS011;7500;57.698;11.986;2023-03-31T11:19:48;1.20;;;1.10;;
14817;SDS011;7500;57.698;11.986;2023-03-31T11:22:20;1.00;;;0.90;;
14817;SDS011;7500;57.698;11.986;2023-03-31T11:24:57;1.03;;;0.90;;
14817;SDS011;7500;57.698;11.986;2023-03-31T11:27:33;0.80;;;0.80;;
14817;SDS011;7500;57.698;11.986;2023-03-31T11:30:03;1.00;;;0.80;;
14817;SDS011;7500;57.698;11.986;2023-03-31T11:32:42;1.73;;;0.77;;
14817;SDS011;7500;57.698;11.986;2023-03-31T11:35:16;0.80;;;0.80;;
14817;SDS011;7500;57.698;11.986;2023-03-31T11:37:49;1.13;;;0.70;;
14817;SDS011;7500;57.698;11.986;2023-03-31T11:43:05;0.80;;;0.73;;
14817;SDS011;7500;57.698;11.986;2023-03-31T11:45:33;1.10;;;1.00;;
14817;SDS011;7500;57.698;11.986;2023-03-31T11:48:02;4.77;;;1.10;;
14817;SDS011;7500;57.698;11.986;2023-03-31T11:50:31;1.00;;;0.90;;
14817;SDS011;7500;57.698;11.986;2023-03-31T11:52:59;1.00;;;0.90;;
14817;SDS011;7500;57.698;11.986;2023-03-31T11:55:28;1.10;;;0.90;;
14817;SDS011;7500;57.698;11.986;2023-03-31T11:57:57;1.03;;;0.90;;
14817;SDS011;7500;57.698;11.986;2023-03-31T12:00:28;1.00;;;1.00;;
14817;SDS011;7500;57.698;11.986;2023-03-31T12:02:58;2.87;;;0.87;;
14817;SDS011;7500;57.698;11.986;2023-03-31T12:05:25;1.20;;;0.90;;
14817;SDS011;7500;57.698;11.986;2023-03-31T12:07:54;0.90;;;0.90;;
14817;SDS011;7500;57.698;11.986;2023-03-31T12:10:28;1.13;;;1.03;;
14817;SDS011;7500;57.698;11.986;2023-03-31T12:12:58;1.50;;;1.40;;
14817;SDS011;7500;57.698;11.986;2023-03-31T12:15:26;1.10;;;1.00;;
14817;SDS011;7500;57.698;11.986;2023-03-31T12:17:58;0.97;;;0.87;;
14817;SDS011;7500;57.698;11.986;2023-03-31T12:20:28;1.20;;;1.10;;
14817;SDS011;7500;57.698;11.986;2023-03-31T12:22:56;1.17;;;0.90;;
14817;SDS011;7500;57.698;11.986;2023-03-31T12:25:24;2.50;;;1.33;;
14817;SDS011;7500;57.698;11.986;2023-03-31T12:27:55;1.00;;;1.00;;
14817;SDS011;7500;57.698;11.986;2023-03-31T12:30:27;1.30;;;1.20;;
14817;SDS011;7500;57.698;11.986;2023-03-31T12:32:55;0.67;;;0.60;;
14817;SDS011;7500;57.698;11.986;2023-03-31T12:35:25;2.63;;;1.10;;
14817;SDS011;7500;57.698;11.986;2023-03-31T12:38:00;1.83;;;1.30;;
14817;SDS011;7500;57.698;11.986;2023-03-31T12:43:23;1.10;;;1.00;;
14817;SDS011;7500;57.698;11.986;2023-03-31T12:45:53;1.00;;;1.00;;
14817;SDS011;7500;57.698;11.986;2023-03-31T12:51:13;1.80;;;1.30;;
14817;SDS011;7500;57.698;11.986;2023-03-31T12:53:45;1.33;;;1.20;;
14817;SDS011;7500;57.698;11.986;2023-03-31T12:56:16;1.50;;;1.37;;
14817;SDS011;7500;57.698;11.986;2023-03-31T12:58:44;0.93;;;0.80;;
14817;SDS011;7500;57.698;11.986;2023-03-31T13:01:15;1.43;;;1.10;;
14817;SDS011;7500;57.698;11.986;2023-03-31T13:03:49;1.20;;;1.10;;
14817;SDS011;7500;57.698;11.986;2023-03-31T13:09:03;1.17;;;1.07;;
14817;SDS011;7500;57.698;11.986;2023-03-31T13:11:36;2.00;;;1.30;;
14817;SDS011;7500;57.698;11.986;2023-03-31T13:14:05;1.23;;;1.07;;
14817;SDS011;7500;57.698;11.986;2023-03-31T13:16:32;1.40;;;1.30;;
14817;SDS011;7500;57.698;11.986;2023-03-31T13:19:00;1.83;;;1.40;;
14817;SDS011;7500;57.698;11.986;2023-03-31T13:21:27;1.60;;;1.50;;
14817;SDS011;7500;57.698;11.986;2023-03-31T13:23:53;1.37;;;1.27;;
14817;SDS011;7500;57.698;11.986;2023-03-31T13:26:39;1.30;;;1.20;;
14817;SDS011;7500;57.698;11.986;2023-03-31T13:32:14;1.50;;;1.30;;
14817;SDS011;7500;57.698;11.986;2023-03-31T13:34:43;1.47;;;1.37;;
14817;SDS011;7500;57.698;11.986;2023-03-31T13:37:15;1.33;;;1.23;;
14817;SDS011;7500;57.698;11.986;2023-03-31T13:42:41;1.23;;;1.13;;
14817;SDS011;7500;57.698;11.986;2023-03-31T13:45:15;1.63;;;1.43;;
14817;SDS011;7500;57.698;11.986;2023-03-31T13:47:49;1.53;;;1.43;;
14817;SDS011;7500;57.698;11.986;2023-03-31T13:50:32;1.43;;;1.33;;
14817;SDS011;7500;57.698;11.986;2023-03-31T13:53:02;1.40;;;1.30;;
14817;SDS011;7500;57.698;11.986;2023-03-31T13:55:39;1.43;;;1.33;;
14817;SDS011;7500;57.698;11.986;2023-03-31T13:58:21;1.53;;;1.40;;
14817;SDS011;7500;57.698;11.986;2023-03-31T14:00:53;1.00;;;1.00;;
14817;SDS011;7500;57.698;11.986;2023-03-31T14:03:26;1.33;;;1.23;;
14817;SDS011;7500;57.698;11.986;2023-03-31T14:05:56;1.50;;;1.40;;
14817;SDS011;7500;57.698;11.986;2023-03-31T14:08:28;1.20;;;1.10;;
14817;SDS011;7500;57.698;11.986;2023-03-31T14:13:41;1.40;;;1.30;;
14817;SDS011;7500;57.698;11.986;2023-03-31T14:16:07;0.90;;;0.90;;
14817;SDS011;7500;57.698;11.986;2023-03-31T14:18:36;1.40;;;1.30;;
14817;SDS011;7500;57.698;11.986;2023-03-31T14:21:06;1.33;;;1.13;;
14817;SDS011;7500;57.698;11.986;2023-03-31T14:23:41;1.50;;;1.40;;
14817;SDS011;7500;57.698;11.986;2023-03-31T14:26:11;1.30;;;1.20;;
14817;SDS011;7500;57.698;11.986;2023-03-31T14:28:45;1.10;;;1.10;;
14817;SDS011;7500;57.698;11.986;2023-03-31T14:31:16;3.23;;;1.10;;
14817;SDS011;7500;57.698;11.986;2023-03-31T14:33:48;1.50;;;1.40;;
14817;SDS011;7500;57.698;11.986;2023-03-31T14:36:20;1.30;;;1.20;;
14817;SDS011;7500;57.698;11.986;2023-03-31T14:38:52;0.90;;;0.90;;
14817;SDS011;7500;57.698;11.986;2023-03-31T14:41:19;1.50;;;1.40;;
14817;SDS011;7500;57.698;11.986;2023-03-31T14:43:55;1.30;;;1.20;;
14817;SDS011;7500;57.698;11.986;2023-03-31T14:46:23;1.30;;;1.20;;
14817;SDS011;7500;57.698;11.986;2023-03-31T14:48:50;1.53;;;1.40;;
14817;SDS011;7500;57.698;11.986;2023-03-31T14:51:17;1.23;;;1.13;;
14817;SDS011;7500;57.698;11.986;2023-03-31T14:53:44;1.73;;;1.40;;
14817;SDS011;7500;57.698;11.986;2023-03-31T14:56:11;6.43;;;1.30;;
14817;SDS011;7500;57.698;11.986;2023-03-31T14:58:39;1.40;;;1.30;;
14817;SDS011;7500;57.698;11.986;2023-03-31T15:01:08;1.10;;;1.10;;
14817;SDS011;7500;57.698;11.986;2023-03-31T15:03:40;1.30;;;1.20;;
14817;SDS011;7500;57.698;11.986;2023-03-31T15:06:07;1.83;;;1.03;;
14817;SDS011;7500;57.698;11.986;2023-03-31T15:08:35;1.50;;;1.40;;
14817;SDS011;7500;57.698;11.986;2023-03-31T15:11:03;1.93;;;1.47;;
14817;SDS011;7500;57.698;11.986;2023-03-31T15:13:32;1.13;;;0.90;;
14817;SDS011;7500;57.698;11.986;2023-03-31T15:16:03;1.23;;;1.07;;
14817;SDS011;7500;57.698;11.986;2023-03-31T15:18:45;1.80;;;1.40;;
14817;SDS011;7500;57.698;11.986;2023-03-31T15:21:18;1.30;;;1.20;;
14817;SDS011;7500;57.698;11.986;2023-03-31T15:23:45;1.63;;;1.20;;
14817;SDS011;7500;57.698;11.986;2023-03-31T15:26:11;1.30;;;1.20;;
14817;SDS011;7500;57.698;11.986;2023-03-31T15:28:43;2.43;;;1.50;;
14817;SDS011;7500;57.698;11.986;2023-03-31T15:31:14;1.23;;;1.13;;
14817;SDS011;7500;57.698;11.986;2023-03-31T15:33:41;1.33;;;1.13;;